Pagrindinis puslapis
METAR-TAF:

METAR-TAF

Oro uostai :

Gary, Indiana, Jungtinės Amerikos Valstijos

platuma: 41-37N, ilguma: 087-25W, Aukštis: 180 m

Dabartinis oras

Ataskaita buvo paskelbta 35 minutes, ne 11:45 UTC
Vėjas 5 kt iš Pietvakarių
Temperatūra 1°C
Drėgmė 100%
Slėgis 1009 hPa
Matomumas: 6.4 km
Apsiniaukę ne aukštis 700 ft
sniegas

METAR: KGYY 251145Z 23005KT 4SM -SN OVC007 01/01 A2979

Laikas: 06:20 (12:20 UTC)

Prognozė

Ataskaita buvo paskelbta 49 minutes, ne 11:31 UTC
Prognozė galioja nuo 25 metu 12 UTC su 26 metu 12 UTC
Vėjas 7 kt iš Vakarų/Pietvakarių
Matomumas: 4.8 km
Apsiniaukę ne aukštis 600 ft
sniegas, rūkana
Laikinai
nuo 25 metu 18 UTC su 25 metu 22 UTC
Matomumas: 8.0 km
sniegas, rūkana
Nuo 25 metu 2200 UTC
Vėjas 8 kt iš Vakarų
Matomumas: 8.0 km
Apsiniaukę ne aukštis 700 ft
dulksna, sniegas, rūkana
Nuo 26 metu 0400 UTC
Vėjas 6 kt iš Vakarų
Matomumas: 10 km
Apsiniaukę ne aukštis 900 ft

TAF: KGYY 251131Z 2512/2612 25007KT 3SM -SN BR OVC006 TEMPO 2518/2522 5SM -SN BR FM252200 26008KT 5SM -DZSN BR OVC007 FM260400 26006KT P6SM OVC009

Orai ataskaitas ir orų prognozės (METAR, TAF).

turimą stotys yra geltonos ir raudonos taškus žemėlapyje.

Perkelti pele per norėdami pamatyti stoties vardą.

Tada spustelėkite, norėdami matyti oro stebėjimo ir prognozės.

Norėdami pakeisti žemėlapį: spustelėkite ant žalios mygtukų su juodo kryžiaus žemyn,; žalią mygtuką su brūkšneliu, jei norite nutolinti; arba žalių rodyklių gretimoms žemėlapius.


METAR-TAF: